createdAt,value
2018-01-16T00:00:20.630Z,95784.75
2018-01-16T00:01:23.855Z,95793.48
2018-01-16T00:02:26.804Z,95793.50
2018-01-16T00:03:29.706Z,95782.80
2018-01-16T00:04:32.663Z,95788.36
2018-01-16T00:05:35.577Z,95779.88
2018-01-16T00:06:38.543Z,95802.58
2018-01-16T00:07:41.806Z,95783.82
2018-01-16T00:08:44.795Z,95787.72
2018-01-16T00:09:47.750Z,95785.16
2018-01-16T00:10:50.688Z,95785.84
2018-01-16T00:11:53.629Z,95796.63
2018-01-16T00:12:56.651Z,95802.25
2018-01-16T00:14:00.043Z,95803.23
2018-01-16T00:15:02.951Z,95805.56
2018-01-16T00:16:05.942Z,95810.74
2018-01-16T00:17:08.888Z,95816.24
2018-01-16T00:18:11.799Z,95804.55
2018-01-16T00:19:14.776Z,95807.55
2018-01-16T00:20:17.750Z,95785.42
2018-01-16T00:21:20.923Z,95774.95
2018-01-16T00:22:23.914Z,95800.02
2018-01-16T00:23:26.884Z,95769.29
2018-01-16T00:24:29.861Z,95783.66
2018-01-16T00:25:33.116Z,95782.70
2018-01-16T00:26:36.000Z,95779.47
2018-01-16T00:27:38.893Z,95778.12
2018-01-16T00:28:41.802Z,95795.42
2018-01-16T00:29:44.694Z,95792.84
2018-01-16T00:30:47.583Z,95807.82
2018-01-16T00:31:50.967Z,95782.14
2018-01-16T00:32:53.923Z,95787.94
2018-01-16T00:33:56.858Z,95807.00
2018-01-16T00:34:59.867Z,95802.48
2018-01-16T00:36:02.814Z,95784.72
2018-01-16T00:37:05.745Z,95784.27
2018-01-16T00:38:09.012Z,95790.67
2018-01-16T00:39:11.891Z,95794.73
2018-01-16T00:40:14.846Z,95808.42
2018-01-16T00:41:17.777Z,95790.52
2018-01-16T00:42:20.885Z,95775.61
2018-01-16T00:43:23.778Z,95806.63
2018-01-16T00:44:27.113Z,95792.00
2018-01-16T00:45:30.016Z,95726.13
2018-01-16T00:46:33.025Z,95816.30
2018-01-16T00:47:35.953Z,95805.25
2018-01-16T00:48:38.931Z,95803.86
2018-01-16T00:49:41.853Z,95771.64
2018-01-16T00:50:45.171Z,95784.88
2018-01-16T00:51:48.085Z,95790.82
2018-01-16T00:52:51.106Z,95778.70
2018-01-16T00:53:54.015Z,95779.94
2018-01-16T00:54:56.977Z,95834.23
2018-01-16T00:55:59.878Z,95805.70
2018-01-16T00:57:03.238Z,95807.81
2018-01-16T00:58:06.191Z,95804.34
2018-01-16T00:59:09.137Z,95807.72
2018-01-16T01:00:12.081Z,95799.28
2018-01-16T01:01:15.027Z,95808.75
2018-01-16T01:02:17.943Z,95741.95
2018-01-16T01:03:21.255Z,95835.58
2018-01-16T01:04:24.185Z,95782.02
2018-01-16T01:05:27.155Z,95797.78
2018-01-16T01:06:30.088Z,95810.86
2018-01-16T01:07:33.016Z,95779.49
2018-01-16T01:08:35.958Z,95807.07
2018-01-16T01:09:39.274Z,95816.66
2018-01-16T01:10:42.229Z,95822.84
2018-01-16T01:11:45.179Z,95819.49
2018-01-16T01:12:48.106Z,95839.13
2018-01-16T01:13:51.061Z,95824.78
2018-01-16T01:14:53.989Z,95829.72
2018-01-16T01:15:57.277Z,95831.67
2018-01-16T01:17:00.169Z,95825.00
2018-01-16T01:18:03.875Z,95828.20
2018-01-16T01:19:06.726Z,95770.44
2018-01-16T01:20:09.539Z,95805.22
2018-01-16T01:21:12.384Z,95845.73
2018-01-16T01:22:15.624Z,95818.14
2018-01-16T01:23:18.548Z,95847.21
2018-01-16T01:24:21.472Z,95838.83
2018-01-16T01:25:24.409Z,95825.52
2018-01-16T01:26:27.390Z,95855.83
2018-01-16T01:27:30.280Z,95844.56
2018-01-16T01:28:33.594Z,95854.84
2018-01-16T01:29:36.555Z,95838.17
2018-01-16T01:30:39.473Z,95867.89
2018-01-16T01:31:42.483Z,95871.13
2018-01-16T01:32:45.367Z,95866.26
2018-01-16T01:33:48.299Z,95869.14
2018-01-16T01:34:51.241Z,95880.23
2018-01-16T01:35:54.162Z,95872.82
2018-01-16T01:36:57.104Z,95849.11
2018-01-16T01:38:00.010Z,95877.73
2018-01-16T01:39:02.941Z,95890.73
2018-01-16T01:40:06.214Z,95895.88
2018-01-16T01:41:09.118Z,95881.84
2018-01-16T01:42:12.116Z,95889.70
2018-01-16T01:43:15.032Z,95877.52
2018-01-16T01:44:17.935Z,95867.45
2018-01-16T01:45:20.854Z,95877.47
2018-01-16T01:46:24.594Z,95888.51
2018-01-16T01:47:27.508Z,95874.81
2018-01-16T01:48:30.454Z,95879.73
2018-01-16T01:49:33.372Z,95881.52
2018-01-16T01:50:36.293Z,95875.89
2018-01-16T01:51:39.167Z,95873.73
2018-01-16T01:52:42.554Z,95904.70
2018-01-16T01:53:45.459Z,95902.09
2018-01-16T01:54:48.474Z,95899.40
2018-01-16T01:55:51.396Z,95916.32
2018-01-16T01:56:54.286Z,95887.91
2018-01-16T01:57:57.227Z,95887.09
2018-01-16T01:59:00.643Z,95885.53
2018-01-16T02:00:03.555Z,95900.90
2018-01-16T02:01:06.478Z,95889.53
2018-01-16T02:02:09.438Z,95892.24
2018-01-16T02:03:12.363Z,95879.95
2018-01-16T02:04:15.295Z,95899.55
2018-01-16T02:05:18.709Z,95893.48
2018-01-16T02:06:21.628Z,95898.57
2018-01-16T02:07:24.585Z,95899.22
2018-01-16T02:08:27.488Z,95888.47
2018-01-16T02:09:30.416Z,95891.28
2018-01-16T02:10:33.343Z,95897.28
2018-01-16T02:11:36.696Z,95896.80
2018-01-16T02:12:39.610Z,95902.64
2018-01-16T02:13:42.535Z,95900.91
2018-01-16T02:14:45.385Z,95910.34
2018-01-16T02:15:48.235Z,95892.91
2018-01-16T02:16:51.020Z,95894.25
2018-01-16T02:17:54.281Z,95898.16
2018-01-16T02:18:57.193Z,95865.77
2018-01-16T02:20:00.088Z,95869.78
2018-01-16T02:21:03.035Z,95876.17
2018-01-16T02:22:05.944Z,95887.00
2018-01-16T02:23:08.878Z,95872.91
2018-01-16T02:24:12.287Z,95875.75
2018-01-16T02:25:15.224Z,95868.59
2018-01-16T02:26:18.159Z,95878.12
2018-01-16T02:27:21.055Z,95886.06
2018-01-16T02:28:23.966Z,95871.92
2018-01-16T02:29:28.396Z,95834.40
2018-01-16T02:30:32.611Z,95887.26
2018-01-16T02:31:35.502Z,95873.12
2018-01-16T02:32:38.402Z,95861.75
2018-01-16T02:33:41.318Z,95878.37
2018-01-16T02:34:44.212Z,95871.92
2018-01-16T02:35:47.143Z,95867.61
2018-01-16T02:36:50.305Z,95863.64
2018-01-16T02:37:53.166Z,95861.22
2018-01-16T02:38:56.092Z,95859.55
2018-01-16T02:39:59.014Z,95858.57
2018-01-16T02:41:01.927Z,95859.52
2018-01-16T02:42:04.842Z,95870.14
2018-01-16T02:43:08.256Z,95859.41
2018-01-16T02:44:11.242Z,95848.90
2018-01-16T02:45:14.363Z,95869.43
2018-01-16T02:46:17.387Z,95851.02
2018-01-16T02:47:20.507Z,95852.59
2018-01-16T02:48:23.423Z,95858.07
2018-01-16T02:49:26.776Z,95863.73
2018-01-16T02:50:29.803Z,95850.62
2018-01-16T02:51:32.917Z,95848.45
2018-01-16T02:52:36.009Z,95854.56
2018-01-16T02:53:38.891Z,95818.40
2018-01-16T02:54:41.868Z,95842.60
2018-01-16T02:55:45.266Z,95845.59
2018-01-16T02:56:48.124Z,95846.81
2018-01-16T02:57:51.061Z,95848.30
2018-01-16T02:58:54.010Z,95849.21
2018-01-16T02:59:57.026Z,95847.78
2018-01-16T03:00:59.933Z,95850.42
2018-01-16T03:02:03.235Z,95845.52
2018-01-16T03:03:06.108Z,95845.03
2018-01-16T03:04:09.028Z,95832.91
2018-01-16T03:05:11.931Z,95841.23
2018-01-16T03:06:14.847Z,95831.69
2018-01-16T03:07:17.829Z,95824.11
2018-01-16T03:08:21.068Z,95839.53
2018-01-16T03:09:23.997Z,95835.00
2018-01-16T03:10:26.907Z,95830.30
2018-01-16T03:11:29.802Z,95832.19
2018-01-16T03:12:32.692Z,95805.27
2018-01-16T03:13:35.569Z,95823.67
2018-01-16T03:14:39.126Z,95829.53
2018-01-16T03:15:41.982Z,95841.17
2018-01-16T03:16:44.887Z,95822.34
2018-01-16T03:17:47.789Z,95819.29
2018-01-16T03:18:50.730Z,95821.14
2018-01-16T03:19:53.644Z,95818.38
2018-01-16T03:20:56.961Z,95814.97
2018-01-16T03:21:59.846Z,95822.28
2018-01-16T03:23:02.767Z,95822.38
2018-01-16T03:24:05.639Z,95823.50
2018-01-16T03:25:08.547Z,95826.77
2018-01-16T03:26:11.440Z,95826.77
2018-01-16T03:27:14.585Z,95818.09
2018-01-16T03:28:17.484Z,95823.36
2018-01-16T03:29:20.389Z,95825.56
2018-01-16T03:30:23.297Z,95833.38
2018-01-16T03:31:26.227Z,95826.00
2018-01-16T03:32:29.102Z,95815.83
2018-01-16T03:33:32.465Z,95820.48
2018-01-16T03:34:35.344Z,95832.14
2018-01-16T03:35:38.249Z,95826.60
2018-01-16T03:36:41.137Z,95817.19
2018-01-16T03:37:44.059Z,95832.83
2018-01-16T03:38:46.956Z,95823.63
2018-01-16T03:39:49.824Z,95825.48
2018-01-16T03:40:52.763Z,95826.73
2018-01-16T03:41:55.668Z,95813.02
2018-01-16T03:42:58.581Z,95813.90
2018-01-16T03:44:01.474Z,95802.16
2018-01-16T03:45:04.693Z,95793.66
2018-01-16T03:46:07.805Z,95789.59
2018-01-16T03:47:10.729Z,95793.05
2018-01-16T03:48:13.626Z,95793.50
2018-01-16T03:49:16.559Z,95788.98
2018-01-16T03:50:19.446Z,95788.30
2018-01-16T03:51:22.785Z,95784.45
2018-01-16T03:52:25.663Z,95788.45
2018-01-16T03:53:28.546Z,95778.89
2018-01-16T03:54:31.408Z,95775.42
2018-01-16T03:55:34.313Z,95780.87
2018-01-16T03:56:37.209Z,95778.59
2018-01-16T03:57:40.377Z,95775.95
2018-01-16T03:58:43.260Z,95771.08
2018-01-16T03:59:46.200Z,95776.48
2018-01-16T04:00:49.068Z,95768.49
2018-01-16T04:01:51.948Z,95747.16
2018-01-16T04:02:54.932Z,95765.34
2018-01-16T04:03:58.288Z,95755.59
2018-01-16T04:05:01.207Z,95755.65
2018-01-16T04:06:04.051Z,95752.03
2018-01-16T04:07:07.089Z,95748.56
2018-01-16T04:08:09.969Z,95758.84
2018-01-16T04:09:12.761Z,95746.97
2018-01-16T04:10:15.701Z,95741.93
2018-01-16T04:11:18.661Z,95742.03
2018-01-16T04:12:21.565Z,95747.75
2018-01-16T04:13:24.466Z,95743.41
2018-01-16T04:14:27.473Z,95730.00
2018-01-16T04:15:30.621Z,95733.49
2018-01-16T04:16:33.854Z,95737.02
2018-01-16T04:17:36.657Z,95731.92
2018-01-16T04:18:39.486Z,95730.84
2018-01-16T04:19:42.373Z,95730.69
2018-01-16T04:20:45.329Z,95729.94
2018-01-16T04:21:48.213Z,95720.93
2018-01-16T04:22:51.426Z,95720.27
2018-01-16T04:23:54.320Z,95717.00
2018-01-16T04:24:57.196Z,95713.98
2018-01-16T04:26:00.105Z,95713.31
2018-01-16T04:27:03.062Z,95704.81
2018-01-16T04:28:05.974Z,95718.44
2018-01-16T04:29:09.232Z,95720.91
2018-01-16T04:30:12.131Z,95705.86
2018-01-16T04:31:15.040Z,95712.34
2018-01-16T04:32:17.950Z,95707.05
2018-01-16T04:33:20.821Z,95697.98
2018-01-16T04:34:23.737Z,95702.30
2018-01-16T04:35:27.147Z,95699.00
2018-01-16T04:36:30.042Z,95703.97
2018-01-16T04:37:32.946Z,95702.45
2018-01-16T04:38:35.815Z,95704.22
2018-01-16T04:39:38.734Z,95708.72
2018-01-16T04:40:41.622Z,95715.36
2018-01-16T04:41:44.982Z,95728.08
2018-01-16T04:42:47.876Z,95728.14
2018-01-16T04:43:50.769Z,95718.54
2018-01-16T04:44:53.701Z,95721.91
2018-01-16T04:45:56.956Z,95719.35
2018-01-16T04:46:59.997Z,95713.19
2018-01-16T04:48:03.217Z,95708.00
2018-01-16T04:49:06.125Z,95717.25
2018-01-16T04:50:09.015Z,95699.78
2018-01-16T04:51:11.911Z,95710.86
2018-01-16T04:52:14.972Z,95726.28
2018-01-16T04:53:17.882Z,95688.07
2018-01-16T04:54:21.086Z,95698.20
2018-01-16T04:55:24.011Z,95706.89
2018-01-16T04:56:26.901Z,95689.30
2018-01-16T04:57:29.825Z,95697.47
2018-01-16T04:58:32.714Z,95720.44
2018-01-16T04:59:35.690Z,95690.14
2018-01-16T05:00:38.954Z,95694.54
2018-01-16T05:01:41.849Z,95697.61
2018-01-16T05:02:44.819Z,95663.11
2018-01-16T05:03:48.311Z,95712.03
2018-01-16T05:04:51.288Z,95696.11
2018-01-16T05:05:54.128Z,95710.09
2018-01-16T05:06:59.324Z,95716.91
2018-01-16T05:08:02.233Z,95741.69
2018-01-16T05:09:05.201Z,95717.71
2018-01-16T05:10:08.314Z,95726.92
2018-01-16T05:11:11.151Z,95728.66
2018-01-16T05:12:14.042Z,95723.73
2018-01-16T05:13:17.374Z,95727.78
2018-01-16T05:14:20.314Z,95712.41
2018-01-16T05:15:23.198Z,95686.58
2018-01-16T05:16:26.087Z,95713.07
2018-01-16T05:17:28.989Z,95702.58
2018-01-16T05:18:31.880Z,95690.97
2018-01-16T05:19:35.174Z,95705.54
2018-01-16T05:20:38.064Z,95698.90
2018-01-16T05:21:40.961Z,95687.92
2018-01-16T05:22:43.850Z,95699.17
2018-01-16T05:23:46.745Z,95698.91
2018-01-16T05:24:49.701Z,95689.33
2018-01-16T05:25:52.989Z,95687.06
2018-01-16T05:26:55.861Z,95709.17
2018-01-16T05:27:58.775Z,95709.92
2018-01-16T05:29:01.634Z,95707.36
2018-01-16T05:30:04.544Z,95700.29
2018-01-16T05:31:07.461Z,95703.37
2018-01-16T05:32:10.668Z,95698.02
2018-01-16T05:33:13.567Z,95711.36
2018-01-16T05:34:16.511Z,95696.72
2018-01-16T05:35:19.402Z,95699.80
2018-01-16T05:36:22.268Z,95702.18
2018-01-16T05:37:25.178Z,95689.48
2018-01-16T05:38:28.533Z,95701.05
2018-01-16T05:39:31.425Z,95699.91
2018-01-16T05:40:34.311Z,95708.28
2018-01-16T05:41:37.246Z,95702.83
2018-01-16T05:42:40.153Z,95708.83
2018-01-16T05:43:43.056Z,95703.27
2018-01-16T05:44:45.951Z,95691.35
2018-01-16T05:45:48.968Z,95690.05
2018-01-16T05:46:51.844Z,95693.89
2018-01-16T05:47:54.746Z,95683.33
2018-01-16T05:48:57.633Z,95683.65
2018-01-16T05:50:00.613Z,95675.88
2018-01-16T05:51:03.819Z,95665.77
2018-01-16T05:52:06.785Z,95686.78
2018-01-16T05:53:09.701Z,95679.76
2018-01-16T05:54:12.601Z,95685.97
2018-01-16T05:55:15.515Z,95687.59
2018-01-16T05:56:18.420Z,95688.03
2018-01-16T05:57:21.706Z,95695.80
2018-01-16T05:58:24.590Z,95699.97
2018-01-16T05:59:27.517Z,95704.61
2018-01-16T06:00:30.417Z,95702.67
2018-01-16T06:01:33.336Z,95700.18
2018-01-16T06:02:36.273Z,95694.34
2018-01-16T06:03:39.537Z,95702.58
2018-01-16T06:04:42.468Z,95693.33
2018-01-16T06:05:45.422Z,95688.42
2018-01-16T06:06:48.388Z,95701.28
2018-01-16T06:07:51.226Z,95705.17
2018-01-16T06:08:54.088Z,95695.02
2018-01-16T06:09:57.448Z,95698.80
2018-01-16T06:11:00.284Z,95704.20
2018-01-16T06:12:03.200Z,95693.61
2018-01-16T06:13:06.153Z,95694.42
2018-01-16T06:14:09.072Z,95690.95
2018-01-16T06:15:12.039Z,95695.01
2018-01-16T06:16:15.348Z,95696.08
2018-01-16T06:17:18.251Z,95703.61
2018-01-16T06:18:21.145Z,95696.37
2018-01-16T06:19:24.078Z,95696.96
2018-01-16T06:20:26.957Z,95700.96
2018-01-16T06:21:29.855Z,95704.42
2018-01-16T06:22:33.200Z,95700.53
2018-01-16T06:23:36.077Z,95704.19
2018-01-16T06:24:38.999Z,95700.43
2018-01-16T06:25:41.985Z,95694.52
2018-01-16T06:26:44.951Z,95693.16
2018-01-16T06:27:47.874Z,95693.16
2018-01-16T06:28:51.263Z,95691.66
2018-01-16T06:29:54.159Z,95698.11
2018-01-16T06:30:57.043Z,95693.16
2018-01-16T06:31:59.982Z,95690.14
2018-01-16T06:33:02.942Z,95690.00
2018-01-16T06:34:05.852Z,95694.81
2018-01-16T06:35:09.120Z,95688.00
2018-01-16T06:36:12.098Z,95688.86
2018-01-16T06:37:14.980Z,95693.39
2018-01-16T06:38:17.901Z,95692.47
2018-01-16T06:39:20.817Z,95692.42
2018-01-16T06:40:23.899Z,95680.09
2018-01-16T06:41:27.155Z,95687.61
2018-01-16T06:42:30.046Z,95683.77
2018-01-16T06:43:33.036Z,95682.95
2018-01-16T06:44:35.934Z,95686.14
2018-01-16T06:45:38.841Z,95682.54
2018-01-16T06:46:43.603Z,95680.48
2018-01-16T06:47:52.066Z,95686.31
2018-01-16T06:48:57.101Z,95682.16
2018-01-16T06:50:00.033Z,95679.38
2018-01-16T06:51:02.996Z,95685.24
2018-01-16T06:52:05.898Z,95684.53
2018-01-16T06:53:08.909Z,95681.83
2018-01-16T06:54:12.373Z,95687.07
2018-01-16T06:55:15.346Z,95687.55
2018-01-16T06:56:18.753Z,95682.30
2018-01-16T06:57:22.459Z,95686.80
2018-01-16T06:58:26.646Z,95679.28
2018-01-16T06:59:29.586Z,95692.46
2018-01-16T07:00:32.982Z,95689.16
2018-01-16T07:01:35.954Z,95684.52
2018-01-16T07:02:38.878Z,95682.41
2018-01-16T07:03:41.807Z,95681.69
2018-01-16T07:04:44.680Z,95689.05
2018-01-16T07:05:48.286Z,95684.35
2018-01-16T07:06:51.880Z,95703.70
2018-01-16T07:07:54.793Z,95703.11
2018-01-16T07:08:57.730Z,95688.78
2018-01-16T07:10:00.633Z,95692.30
2018-01-16T07:11:03.567Z,95691.48
2018-01-16T07:12:06.456Z,95686.08
2018-01-16T07:13:09.726Z,95687.47
2018-01-16T07:14:12.681Z,95685.42
2018-01-16T07:15:15.700Z,95684.72
2018-01-16T07:16:18.684Z,95683.80
2018-01-16T07:17:21.590Z,95682.83
2018-01-16T07:18:24.528Z,95682.60
2018-01-16T07:19:27.927Z,95677.85
2018-01-16T07:20:30.837Z,95664.64
2018-01-16T07:21:33.755Z,95670.34
2018-01-16T07:22:36.657Z,95672.45
2018-01-16T07:23:39.589Z,95670.95
2018-01-16T07:24:42.658Z,95662.98
2018-01-16T07:25:46.681Z,95661.23
2018-01-16T07:26:49.733Z,95668.38
2018-01-16T07:27:52.731Z,95656.54
2018-01-16T07:28:55.758Z,95656.38
2018-01-16T07:29:58.909Z,95663.65
2018-01-16T07:31:01.766Z,95658.55
2018-01-16T07:32:05.064Z,95659.62
2018-01-16T07:33:08.017Z,95647.89
2018-01-16T07:34:10.925Z,95655.19
2018-01-16T07:35:13.858Z,95657.02
2018-01-16T07:36:16.811Z,95655.50
2018-01-16T07:37:19.713Z,95656.60
2018-01-16T07:38:22.943Z,95658.39
2018-01-16T07:39:25.858Z,95664.56
2018-01-16T07:40:29.005Z,95664.03
2018-01-16T07:41:32.011Z,95667.27
2018-01-16T07:42:35.115Z,95668.23
2018-01-16T07:43:38.102Z,95660.37
2018-01-16T07:44:41.362Z,95679.72
2018-01-16T07:45:44.489Z,95664.72
2018-01-16T07:46:47.402Z,95657.36
2018-01-16T07:47:50.314Z,95613.60
2018-01-16T07:48:53.245Z,95646.34
2018-01-16T07:49:56.206Z,95638.55
2018-01-16T07:50:59.468Z,95624.86
2018-01-16T07:52:02.408Z,95647.28
2018-01-16T07:53:05.397Z,95628.50
2018-01-16T07:54:08.324Z,95640.80
2018-01-16T07:55:11.256Z,95652.43
2018-01-16T07:56:14.165Z,95649.03
2018-01-16T07:57:17.437Z,95654.81
2018-01-16T07:58:20.361Z,95646.11
2018-01-16T07:59:23.286Z,95617.38
2018-01-16T08:00:26.246Z,95652.41
2018-01-16T08:01:29.166Z,95653.98
2018-01-16T08:02:32.075Z,95648.34
2018-01-16T08:03:35.284Z,95675.24
2018-01-16T08:04:38.190Z,95664.86
2018-01-16T08:05:41.336Z,95672.16
2018-01-16T08:06:44.262Z,95675.98
2018-01-16T08:07:48.137Z,95679.67
2018-01-16T08:08:51.064Z,95654.64
2018-01-16T08:09:54.296Z,95676.81
2018-01-16T08:10:57.172Z,95654.27
2018-01-16T08:12:00.115Z,95653.82
2018-01-16T08:13:03.039Z,95653.12
2018-01-16T08:14:05.955Z,95666.22
2018-01-16T08:15:08.845Z,95646.69
2018-01-16T08:16:12.222Z,95647.81
2018-01-16T08:17:15.113Z,95638.23
2018-01-16T08:18:17.940Z,95650.05
2018-01-16T08:19:27.430Z,95653.52
2018-01-16T08:20:30.325Z,95661.26
2018-01-16T08:21:33.309Z,95674.72
2018-01-16T08:22:36.912Z,95664.87
2018-01-16T08:23:39.832Z,95672.02
2018-01-16T08:24:42.696Z,95662.36
2018-01-16T08:25:45.580Z,95659.31
2018-01-16T08:26:48.750Z,95655.38
2018-01-16T08:27:51.715Z,95662.23
2018-01-16T08:28:55.865Z,95651.45
2018-01-16T08:29:58.744Z,95666.48
2018-01-16T08:31:01.645Z,95669.03
2018-01-16T08:32:04.447Z,95662.99
2018-01-16T08:33:07.363Z,95668.41
2018-01-16T08:34:10.321Z,95667.80
2018-01-16T08:35:13.599Z,95680.30
2018-01-16T08:36:16.569Z,95683.63
2018-01-16T08:37:19.491Z,95663.45
2018-01-16T08:38:22.411Z,95659.40
2018-01-16T08:39:25.448Z,95662.13
2018-01-16T08:40:28.444Z,95671.61
2018-01-16T08:41:32.217Z,95680.33
2018-01-16T08:42:35.109Z,95661.91
2018-01-16T08:43:38.082Z,95629.69
2018-01-16T08:44:40.996Z,95674.21
2018-01-16T08:45:44.007Z,95663.70
2018-01-16T08:46:46.897Z,95668.59
2018-01-16T08:47:50.219Z,95639.95
2018-01-16T08:48:53.127Z,95638.66
2018-01-16T08:49:56.163Z,95641.30
2018-01-16T08:50:59.087Z,95638.90
2018-01-16T08:52:02.111Z,95634.21
2018-01-16T08:53:05.017Z,95648.73
2018-01-16T08:54:08.544Z,95637.66
2018-01-16T08:55:11.471Z,95647.52
2018-01-16T08:56:14.369Z,95625.77
2018-01-16T08:57:17.329Z,95628.84
2018-01-16T08:58:20.278Z,95636.25
2018-01-16T08:59:23.169Z,95634.69
2018-01-16T09:00:26.423Z,95641.95
2018-01-16T09:01:29.502Z,95659.67
2018-01-16T09:02:32.388Z,95667.14
2018-01-16T09:03:35.292Z,95632.55
2018-01-16T09:04:38.260Z,95668.03
2018-01-16T09:05:41.241Z,95639.70
2018-01-16T09:06:44.549Z,95663.74
2018-01-16T09:07:47.698Z,95626.67
2018-01-16T09:08:50.690Z,95644.36
2018-01-16T09:09:53.642Z,95642.94
2018-01-16T09:10:56.674Z,95643.75
2018-01-16T09:11:59.926Z,95627.13
2018-01-16T09:13:03.074Z,95648.27
2018-01-16T09:14:05.963Z,95642.78
2018-01-16T09:15:08.904Z,95655.25
2018-01-16T09:16:11.859Z,95647.13
2018-01-16T09:17:14.884Z,95641.78
2018-01-16T09:18:18.393Z,95651.19
2018-01-16T09:19:21.413Z,95657.19
2018-01-16T09:20:24.323Z,95654.18
2018-01-16T09:21:27.341Z,95649.50
2018-01-16T09:22:30.268Z,95632.05
2018-01-16T09:23:33.146Z,95638.58
2018-01-16T09:24:36.455Z,95638.65
2018-01-16T09:25:39.432Z,95632.78
2018-01-16T09:26:42.386Z,95644.84
2018-01-16T09:27:45.274Z,95652.65
2018-01-16T09:28:48.226Z,95644.98
2018-01-16T09:29:51.222Z,95638.44
2018-01-16T09:30:54.503Z,95638.68
2018-01-16T09:31:57.444Z,95658.00
2018-01-16T09:33:00.338Z,95640.39
2018-01-16T09:34:03.247Z,95662.70
2018-01-16T09:35:06.179Z,95618.72
2018-01-16T09:36:09.113Z,95635.02
2018-01-16T09:37:12.441Z,95630.97
2018-01-16T09:38:15.403Z,95639.84
2018-01-16T09:39:18.381Z,95613.22
2018-01-16T09:40:21.272Z,95651.38
2018-01-16T09:41:24.335Z,95648.80
2018-01-16T09:42:27.294Z,95650.69
2018-01-16T09:43:30.197Z,95625.70
2018-01-16T09:44:33.121Z,95644.82
2018-01-16T09:45:36.074Z,95631.24
2018-01-16T09:46:39.802Z,95649.75
2018-01-16T09:47:42.757Z,95631.57
2018-01-16T09:48:45.961Z,95642.42
2018-01-16T09:49:48.933Z,95654.33
2018-01-16T09:50:51.887Z,95618.94
2018-01-16T09:51:54.793Z,95627.53
2018-01-16T09:52:57.712Z,95631.57
2018-01-16T09:54:00.695Z,95645.80
2018-01-16T09:55:04.064Z,95634.60
2018-01-16T09:56:07.001Z,95645.47
2018-01-16T09:57:09.865Z,95614.46
2018-01-16T09:58:12.809Z,95627.19
2018-01-16T09:59:15.832Z,95614.33
2018-01-16T10:00:18.731Z,95614.56
2018-01-16T10:01:22.098Z,95630.12
2018-01-16T10:02:25.002Z,95607.00
2018-01-16T10:03:27.929Z,95627.85
2018-01-16T10:04:30.838Z,95616.11
2018-01-16T10:05:33.763Z,95619.14
2018-01-16T10:06:36.833Z,95623.86
2018-01-16T10:07:40.083Z,95614.84
2018-01-16T10:08:43.159Z,95615.06
2018-01-16T10:09:46.180Z,95619.27
2018-01-16T10:10:49.217Z,95618.16
2018-01-16T10:11:52.107Z,95607.31
2018-01-16T10:12:55.116Z,95583.77
2018-01-16T10:13:58.586Z,95615.81
2018-01-16T10:15:01.517Z,95622.74
2018-01-16T10:16:04.534Z,95621.32
2018-01-16T10:17:07.462Z,95613.80
2018-01-16T10:18:10.411Z,95625.54
2018-01-16T10:19:13.313Z,95642.39
2018-01-16T10:20:16.550Z,95631.18
2018-01-16T10:21:19.527Z,95624.94
2018-01-16T10:22:22.454Z,95609.97
2018-01-16T10:23:25.393Z,95620.44
2018-01-16T10:24:28.348Z,95629.60
2018-01-16T10:25:31.342Z,95633.68
2018-01-16T10:26:34.637Z,95607.70
2018-01-16T10:27:37.569Z,95642.69
2018-01-16T10:28:40.483Z,95605.14
2018-01-16T10:29:43.519Z,95581.23
2018-01-16T10:30:47.023Z,95591.83
2018-01-16T10:31:50.176Z,95604.31
2018-01-16T10:32:53.544Z,95589.80
2018-01-16T10:33:56.454Z,95589.19
2018-01-16T10:34:59.378Z,95603.50
2018-01-16T10:36:02.324Z,95569.70
2018-01-16T10:37:05.249Z,95611.55
2018-01-16T10:38:08.220Z,95621.85
2018-01-16T10:39:11.499Z,95612.20
2018-01-16T10:40:14.604Z,95606.33
2018-01-16T10:41:17.697Z,95612.11
2018-01-16T10:42:20.658Z,95615.52
2018-01-16T10:43:23.750Z,95593.96
2018-01-16T10:44:26.796Z,95599.67
2018-01-16T10:45:30.290Z,95600.55
2018-01-16T10:46:33.243Z,95595.13
2018-01-16T10:47:36.251Z,95600.83
2018-01-16T10:48:39.268Z,95612.35
2018-01-16T10:49:42.275Z,95616.88
2018-01-16T10:50:45.312Z,95612.05
2018-01-16T10:51:48.734Z,95617.01
2018-01-16T11:09:02.296Z,95619.09
2018-01-16T11:24:12.677Z,95617.31
2018-01-16T11:25:16.396Z,95622.50
2018-01-16T11:26:19.397Z,95633.53
2018-01-16T11:27:22.308Z,95640.00
2018-01-16T11:28:25.208Z,95703.99
2018-01-16T11:29:28.231Z,95719.34
2018-01-16T11:30:31.167Z,95718.57
2018-01-16T11:31:34.181Z,95713.25
2018-01-16T11:32:37.113Z,95711.82
2018-01-16T11:33:40.163Z,95723.25
2018-01-16T11:34:43.626Z,95725.50
2018-01-16T11:35:46.559Z,95737.67
2018-01-16T11:36:49.563Z,95729.52
2018-01-16T11:37:52.485Z,95749.70
2018-01-16T11:38:55.475Z,95740.95
2018-01-16T11:39:58.465Z,95747.77
2018-01-16T11:41:01.832Z,95750.96
2018-01-16T11:42:04.848Z,95762.77
2018-01-16T11:43:07.821Z,95753.48
2018-01-16T11:44:10.943Z,95760.91
2018-01-16T11:45:13.870Z,95767.82
2018-01-16T11:46:16.813Z,95775.94
2018-01-16T11:47:20.145Z,95781.78
2018-01-16T11:48:23.254Z,95784.24
2018-01-16T11:49:26.911Z,95780.63
2018-01-16T11:50:29.911Z,95781.81
2018-01-16T11:51:32.935Z,95782.27
2018-01-16T11:52:35.856Z,95774.23
2018-01-16T11:53:39.274Z,95780.09
2018-01-16T11:54:42.495Z,95780.52
2018-01-16T11:55:45.326Z,95781.22
2018-01-16T11:56:48.187Z,95784.80
2018-01-16T11:57:51.282Z,95786.31
2018-01-16T11:58:54.436Z,95787.95
2018-01-16T11:59:58.025Z,95792.09
2018-01-16T12:01:00.945Z,95786.52
2018-01-16T12:02:04.313Z,95768.58
2018-01-16T12:03:07.819Z,95794.16
2018-01-16T12:04:10.944Z,95790.02
2018-01-16T12:05:14.024Z,95800.22
2018-01-16T12:06:17.557Z,95791.66
2018-01-16T12:07:20.772Z,95804.20
2018-01-16T12:08:23.796Z,95792.48
2018-01-16T12:09:28.102Z,95809.50
2018-01-16T12:10:31.043Z,95798.87
2018-01-16T12:11:34.132Z,95797.84
2018-01-16T12:12:37.985Z,95809.99
2018-01-16T12:13:41.033Z,95800.38
2018-01-16T12:14:44.037Z,95791.91
2018-01-16T12:15:47.215Z,95795.09
2018-01-16T12:16:50.190Z,95794.84
2018-01-16T12:17:53.432Z,95798.01
2018-01-16T12:18:56.883Z,95806.66
2018-01-16T12:19:59.835Z,95808.55
2018-01-16T12:21:02.793Z,95799.36
2018-01-16T12:22:05.820Z,95795.81
2018-01-16T12:23:08.885Z,95800.76
2018-01-16T12:24:11.909Z,95807.25
2018-01-16T12:25:15.449Z,95789.28
2018-01-16T12:26:18.492Z,95783.99
2018-01-16T12:27:22.396Z,95795.91
2018-01-16T12:28:25.423Z,95795.83
2018-01-16T12:29:28.521Z,95801.15
2018-01-16T12:30:31.453Z,95799.16
2018-01-16T12:31:34.878Z,95790.52
2018-01-16T12:32:37.931Z,95787.98
2018-01-16T12:33:41.036Z,95796.38
2018-01-16T12:34:44.169Z,95800.86
2018-01-16T12:35:47.414Z,95806.47
2018-01-16T12:36:50.410Z,95807.53
2018-01-16T12:37:53.852Z,95793.24
2018-01-16T12:38:57.109Z,95804.29
2018-01-16T12:40:00.044Z,95800.81
2018-01-16T12:41:03.138Z,95805.52
2018-01-16T12:42:06.321Z,95798.67
2018-01-16T12:43:09.568Z,95805.37
2018-01-16T12:44:13.011Z,95810.81
2018-01-16T12:45:16.540Z,95809.12
2018-01-16T12:46:19.621Z,95811.10
2018-01-16T12:47:22.846Z,95805.28
2018-01-16T12:48:26.622Z,95816.70
2018-01-16T12:49:30.668Z,95818.64
2018-01-16T12:50:35.267Z,95792.72